sensor_id;sensor_type;location;lat;lon;timestamp;pressure;altitude;pressure_sealevel;temperature;humidity
50652;BME280;61429;52.086;5.240;2022-12-29T06:26:04;99770.0;;;10.97;75.95
50652;BME280;61429;52.086;5.240;2022-12-29T06:27:40;99764.0;;;10.94;76.28
50652;BME280;61429;52.086;5.240;2022-12-29T06:30:53;99770.0;;;10.94;76.55
50652;BME280;61429;52.086;5.240;2022-12-29T06:32:30;99783.0;;;10.96;77.34
50652;BME280;61429;52.086;5.240;2022-12-29T06:34:07;99797.0;;;10.85;77.24
50652;BME280;61429;52.086;5.240;2022-12-29T06:35:43;99783.0;;;10.77;77.42
50652;BME280;61429;52.086;5.240;2022-12-29T06:38:57;99789.0;;;10.79;76.97
50652;BME280;61429;52.086;5.240;2022-12-29T06:40:33;99791.0;;;10.72;76.92
50652;BME280;61429;52.086;5.240;2022-12-29T06:42:10;99788.0;;;10.7;76.74
50652;BME280;61429;52.086;5.240;2022-12-29T06:45:22;99796.0;;;10.71;76.45
50652;BME280;61429;52.086;5.240;2022-12-29T06:47:01;99797.0;;;10.85;76.28
50652;BME280;61429;52.086;5.240;2022-12-29T06:48:37;99783.0;;;10.79;75.44
50652;BME280;61429;52.086;5.240;2022-12-29T06:50:14;99766.0;;;10.82;74.77
50652;BME280;61429;52.086;5.240;2022-12-29T06:55:05;99768.0;;;10.79;74.02
50652;BME280;61429;52.086;5.240;2022-12-29T06:58:20;99777.0;;;10.76;72.78
50652;BME280;61429;52.086;5.240;2022-12-29T06:59:56;99782.0;;;10.81;72.56
50652;BME280;61429;52.086;5.240;2022-12-29T07:01:33;99794.0;;;10.76;73.16
50652;BME280;61429;52.086;5.240;2022-12-29T07:03:10;99793.0;;;10.55;73.36
50652;BME280;61429;52.086;5.240;2022-12-29T07:06:22;99777.0;;;10.59;74.58
50652;BME280;61429;52.086;5.240;2022-12-29T07:07:59;99781.0;;;10.41;76.06
50652;BME280;61429;52.086;5.240;2022-12-29T07:09:36;99776.0;;;10.33;76.97
50652;BME280;61429;52.086;5.240;2022-12-29T07:11:13;99782.0;;;10.26;77.78
50652;BME280;61429;52.086;5.240;2022-12-29T07:14:26;99780.0;;;10.31;78.22
50652;BME280;61429;52.086;5.240;2022-12-29T07:16:05;99781.0;;;10.23;79.23
50652;BME280;61429;52.086;5.240;2022-12-29T07:17:42;99789.0;;;10.17;79.49
50652;BME280;61429;52.086;5.240;2022-12-29T07:20:56;99794.0;;;10.01;80.19
50652;BME280;61429;52.086;5.240;2022-12-29T07:22:32;99796.0;;;10.01;80.72
50652;BME280;61429;52.086;5.240;2022-12-29T07:24:09;99805.0;;;10.21;80.25
50652;BME280;61429;52.086;5.240;2022-12-29T07:27:22;99807.0;;;10.11;80.63
50652;BME280;61429;52.086;5.240;2022-12-29T07:29:00;99802.0;;;10.13;80.73
50652;BME280;61429;52.086;5.240;2022-12-29T07:30:37;99812.0;;;10.11;80.84
50652;BME280;61429;52.086;5.240;2022-12-29T07:32:14;99807.0;;;10.24;80.52
50652;BME280;61429;52.086;5.240;2022-12-29T07:35:28;99817.0;;;10.09;80.98
50652;BME280;61429;52.086;5.240;2022-12-29T07:37:04;99811.0;;;9.94;80.94
50652;BME280;61429;52.086;5.240;2022-12-29T07:38:42;99805.0;;;10.01;80.72
50652;BME280;61429;52.086;5.240;2022-12-29T07:41:56;99813.0;;;10.13;80.19
50652;BME280;61429;52.086;5.240;2022-12-29T07:43:33;99822.0;;;10.21;79.64
50652;BME280;61429;52.086;5.240;2022-12-29T07:45:10;99827.0;;;10.4;78.98
50652;BME280;61429;52.086;5.240;2022-12-29T07:46:47;99828.0;;;10.41;78.88
50652;BME280;61429;52.086;5.240;2022-12-29T07:49:59;99823.0;;;10.38;78.53
50652;BME280;61429;52.086;5.240;2022-12-29T07:51:37;99827.0;;;10.45;78.41
50652;BME280;61429;52.086;5.240;2022-12-29T07:53:14;99820.0;;;10.57;78.09
50652;BME280;61429;52.086;5.240;2022-12-29T07:56:27;99825.0;;;10.57;77.95
50652;BME280;61429;52.086;5.240;2022-12-29T07:58:04;99830.0;;;10.52;77.88
50652;BME280;61429;52.086;5.240;2022-12-29T07:59:40;99830.0;;;10.51;77.81
50652;BME280;61429;52.086;5.240;2022-12-29T08:02:53;99828.0;;;10.6;77.52
50652;BME280;61429;52.086;5.240;2022-12-29T08:04:29;99826.0;;;10.6;76.92
50652;BME280;61429;52.086;5.240;2022-12-29T08:06:05;99821.0;;;10.53;76.88
50652;BME280;61429;52.086;5.240;2022-12-29T08:07:45;99824.0;;;10.57;76.55
50652;BME280;61429;52.086;5.240;2022-12-29T08:10:58;99826.0;;;10.68;75.95
50652;BME280;61429;52.086;5.240;2022-12-29T08:12:34;99821.0;;;10.64;75.77
50652;BME280;61429;52.086;5.240;2022-12-29T08:14:10;99821.0;;;10.62;75.64
50652;BME280;61429;52.086;5.240;2022-12-29T08:17:24;99819.0;;;10.7;74.87
50652;BME280;61429;52.086;5.240;2022-12-29T08:19:00;99814.0;;;10.76;74.63
50652;BME280;61429;52.086;5.240;2022-12-29T08:20:36;99811.0;;;10.69;74.09
50652;BME280;61429;52.086;5.240;2022-12-29T08:23:49;99813.0;;;10.92;73.77
50652;BME280;61429;52.086;5.240;2022-12-29T08:25:25;99810.0;;;10.81;73.78
50652;BME280;61429;52.086;5.240;2022-12-29T08:27:02;99815.0;;;10.79;73.24
50652;BME280;61429;52.086;5.240;2022-12-29T08:28:38;99818.0;;;10.86;73.08
50652;BME280;61429;52.086;5.240;2022-12-29T08:31:51;99821.0;;;10.85;72.48
50652;BME280;61429;52.086;5.240;2022-12-29T08:33:28;99811.0;;;10.76;72.14
50652;BME280;61429;52.086;5.240;2022-12-29T08:35:05;99819.0;;;10.87;72.19
50652;BME280;61429;52.086;5.240;2022-12-29T08:38:18;99822.0;;;10.77;72.37
50652;BME280;61429;52.086;5.240;2022-12-29T08:39:55;99816.0;;;10.76;72.61
50652;BME280;61429;52.086;5.240;2022-12-29T08:41:31;99819.0;;;10.91;72.25
50652;BME280;61429;52.086;5.240;2022-12-29T08:44:44;99828.0;;;10.89;71.97
50652;BME280;61429;52.086;5.240;2022-12-29T08:46:20;99830.0;;;11.1;71.97
50652;BME280;61429;52.086;5.240;2022-12-29T08:47:57;99830.0;;;10.95;72.48
50652;BME280;61429;52.086;5.240;2022-12-29T08:49:33;99837.0;;;11.06;72.67
50652;BME280;61429;52.086;5.240;2022-12-29T08:52:46;99835.0;;;10.95;73.31
50652;BME280;61429;52.086;5.240;2022-12-29T08:54:22;99834.0;;;10.86;74.08
50652;BME280;61429;52.086;5.240;2022-12-29T08:56:00;99835.0;;;10.92;73.88
50652;BME280;61429;52.086;5.240;2022-12-29T08:59:12;99839.0;;;10.93;73.74
50652;BME280;61429;52.086;5.240;2022-12-29T09:00:52;99836.0;;;11.01;73.59
50652;BME280;61429;52.086;5.240;2022-12-29T09:02:28;99827.0;;;10.84;74.27
50652;BME280;61429;52.086;5.240;2022-12-29T09:05:40;99832.0;;;10.9;74.22
50652;BME280;61429;52.086;5.240;2022-12-29T09:07:16;99843.0;;;11.02;74.3
50652;BME280;61429;52.086;5.240;2022-12-29T09:08:53;99848.0;;;10.98;74.55
50652;BME280;61429;52.086;5.240;2022-12-29T09:10:30;99849.0;;;10.97;74.66
50652;BME280;61429;52.086;5.240;2022-12-29T09:13:44;99850.0;;;10.79;75.87
50652;BME280;61429;52.086;5.240;2022-12-29T09:15:20;99858.0;;;10.96;75.69
50652;BME280;61429;52.086;5.240;2022-12-29T09:20:10;99855.0;;;10.89;76.44
50652;BME280;61429;52.086;5.240;2022-12-29T09:21:47;99855.0;;;10.93;76.23
50652;BME280;61429;52.086;5.240;2022-12-29T09:23:23;99870.0;;;10.83;76.22
50652;BME280;61429;52.086;5.240;2022-12-29T09:26:37;99869.0;;;10.92;76.08
50652;BME280;61429;52.086;5.240;2022-12-29T09:28:13;99877.0;;;10.77;76.94
50652;BME280;61429;52.086;5.240;2022-12-29T09:29:49;99886.0;;;10.84;77.34
50652;BME280;61429;52.086;5.240;2022-12-29T09:31:25;99894.0;;;10.71;77.87
50652;BME280;61429;52.086;5.240;2022-12-29T09:34:39;99902.0;;;10.65;78.91
50652;BME280;61429;52.086;5.240;2022-12-29T09:36:16;99901.0;;;10.53;80.28
50652;BME280;61429;52.086;5.240;2022-12-29T09:37:53;99897.0;;;10.53;80.66
50652;BME280;61429;52.086;5.240;2022-12-29T09:41:11;99898.0;;;10.63;81.16
50652;BME280;61429;52.086;5.240;2022-12-29T09:43:00;99890.0;;;10.63;81.58
50652;BME280;61429;52.086;5.240;2022-12-29T09:44:51;99903.0;;;10.4;82.23
50652;BME280;61429;52.086;5.240;2022-12-29T09:46:38;99905.0;;;10.44;82.35
50652;BME280;61429;52.086;5.240;2022-12-29T09:48:20;99908.0;;;10.35;83.25
50652;BME280;61429;52.086;5.240;2022-12-29T09:51:43;99920.0;;;10.17;83.82
50652;BME280;61429;52.086;5.240;2022-12-29T09:53:26;99926.0;;;10.44;83.47
50652;BME280;61429;52.086;5.240;2022-12-29T09:55:11;99915.0;;;10.32;83.84
50652;BME280;61429;52.086;5.240;2022-12-29T09:56:50;99933.0;;;10.29;84.46
50652;BME280;61429;52.086;5.240;2022-12-29T10:00:14;99928.0;;;10.21;84.59
50652;BME280;61429;52.086;5.240;2022-12-29T10:01:56;99921.0;;;10.32;84.44
50652;BME280;61429;52.086;5.240;2022-12-29T10:03:41;99933.0;;;10.34;84.18
50652;BME280;61429;52.086;5.240;2022-12-29T10:05:30;99942.0;;;10.39;84.09
50652;BME280;61429;52.086;5.240;2022-12-29T10:07:17;99942.0;;;10.22;84.29
50652;BME280;61429;52.086;5.240;2022-12-29T10:09:02;99943.0;;;10.26;84.8
50652;BME280;61429;52.086;5.240;2022-12-29T10:12:42;99957.0;;;10.37;84.3
50652;BME280;61429;52.086;5.240;2022-12-29T10:14:36;99957.0;;;10.26;84.58
50652;BME280;61429;52.086;5.240;2022-12-29T10:16:20;99957.0;;;10.25;84.87
50652;BME280;61429;52.086;5.240;2022-12-29T10:18:12;99953.0;;;10.29;84.28
50652;BME280;61429;52.086;5.240;2022-12-29T10:20:05;99963.0;;;10.42;83.9
50652;BME280;61429;52.086;5.240;2022-12-29T10:22:00;99963.0;;;10.3;84.18
50652;BME280;61429;52.086;5.240;2022-12-29T10:23:49;99977.0;;;10.42;83.48
50652;BME280;61429;52.086;5.240;2022-12-29T10:27:12;99978.0;;;10.47;83.84
50652;BME280;61429;52.086;5.240;2022-12-29T10:28:53;99980.0;;;10.56;83.67
50652;BME280;61429;52.086;5.240;2022-12-29T10:30:32;99980.0;;;10.35;84.51
50652;BME280;61429;52.086;5.240;2022-12-29T10:32:21;99986.0;;;10.31;84.29
50652;BME280;61429;52.086;5.240;2022-12-29T10:34:15;99974.0;;;10.29;84.35
50652;BME280;61429;52.086;5.240;2022-12-29T10:39:22;99994.0;;;10.29;84.67
50652;BME280;61429;52.086;5.240;2022-12-29T10:41:11;99999.0;;;10.28;84.85
50652;BME280;61429;52.086;5.240;2022-12-29T10:42:52;100000.0;;;10.43;84.65
50652;BME280;61429;52.086;5.240;2022-12-29T10:46:11;100007.0;;;10.49;84.7
50652;BME280;61429;52.086;5.240;2022-12-29T10:47:57;100007.0;;;10.4;84.56
50652;BME280;61429;52.086;5.240;2022-12-29T10:51:22;100021.0;;;10.47;84.75
50652;BME280;61429;52.086;5.240;2022-12-29T10:53:04;100025.0;;;10.61;84.17
50652;BME280;61429;52.086;5.240;2022-12-29T10:56:31;100028.0;;;10.55;84.11
50652;BME280;61429;52.086;5.240;2022-12-29T10:58:12;100036.0;;;10.39;84.59
50652;BME280;61429;52.086;5.240;2022-12-29T10:59:50;100033.0;;;10.51;84.63
50652;BME280;61429;52.086;5.240;2022-12-29T11:01:31;100044.0;;;10.4;85.06
50652;BME280;61429;52.086;5.240;2022-12-29T11:05:26;100039.0;;;10.37;84.94
50652;BME280;61429;52.086;5.240;2022-12-29T11:07:09;100039.0;;;10.41;84.95
50652;BME280;61429;52.086;5.240;2022-12-29T11:08:52;100046.0;;;10.47;84.81
50652;BME280;61429;52.086;5.240;2022-12-29T11:10:36;100056.0;;;10.47;84.54
50652;BME280;61429;52.086;5.240;2022-12-29T11:12:19;100057.0;;;10.49;84.5
50652;BME280;61429;52.086;5.240;2022-12-29T11:13:59;100058.0;;;10.57;84.39
50652;BME280;61429;52.086;5.240;2022-12-29T11:17:17;100063.0;;;10.56;84.33
50652;BME280;61429;52.086;5.240;2022-12-29T11:18:53;100071.0;;;10.66;83.75
50652;BME280;61429;52.086;5.240;2022-12-29T11:20:32;100072.0;;;10.69;83.89
50652;BME280;61429;52.086;5.240;2022-12-29T11:23:58;100073.0;;;10.64;83.71
50652;BME280;61429;52.086;5.240;2022-12-29T11:25:35;100075.0;;;10.7;84.07
50652;BME280;61429;52.086;5.240;2022-12-29T11:30:24;100085.0;;;10.83;82.57
50652;BME280;61429;52.086;5.240;2022-12-29T11:32:11;100081.0;;;10.75;82.2
50652;BME280;61429;52.086;5.240;2022-12-29T11:33:48;100098.0;;;10.66;82.5
50652;BME280;61429;52.086;5.240;2022-12-29T11:35:35;100098.0;;;10.78;82.03
50652;BME280;61429;52.086;5.240;2022-12-29T11:37:15;100103.0;;;10.85;81.73
50652;BME280;61429;52.086;5.240;2022-12-29T11:40:38;100101.0;;;10.81;81.3
50652;BME280;61429;52.086;5.240;2022-12-29T11:42:19;100107.0;;;10.7;81.52
50652;BME280;61429;52.086;5.240;2022-12-29T11:43:58;100094.0;;;10.77;81.2
50652;BME280;61429;52.086;5.240;2022-12-29T11:45:35;100103.0;;;10.79;80.74
50652;BME280;61429;52.086;5.240;2022-12-29T11:49:01;100115.0;;;10.87;80.48
50652;BME280;61429;52.086;5.240;2022-12-29T11:50:40;100115.0;;;10.77;80.61
50652;BME280;61429;52.086;5.240;2022-12-29T11:52:21;100112.0;;;10.66;80.83
50652;BME280;61429;52.086;5.240;2022-12-29T11:54:00;100119.0;;;10.59;81.14
50652;BME280;61429;52.086;5.240;2022-12-29T11:55:39;100122.0;;;10.58;81.52
50652;BME280;61429;52.086;5.240;2022-12-29T11:58:56;100122.0;;;10.6;81.05
50652;BME280;61429;52.086;5.240;2022-12-29T12:00:36;100118.0;;;10.6;81.16
50652;BME280;61429;52.086;5.240;2022-12-29T12:02:30;100121.0;;;10.54;82.29
50652;BME280;61429;52.086;5.240;2022-12-29T12:04:59;100120.0;;;10.46;83.93
50652;BME280;61429;52.086;5.240;2022-12-29T12:06:55;100127.0;;;10.45;85.3
50652;BME280;61429;52.086;5.240;2022-12-29T12:08:37;100120.0;;;10.5;85.35
50652;BME280;61429;52.086;5.240;2022-12-29T12:11:59;100122.0;;;10.68;84.62
50652;BME280;61429;52.086;5.240;2022-12-29T12:13:41;100121.0;;;10.7;84.11
50652;BME280;61429;52.086;5.240;2022-12-29T12:15:30;100126.0;;;10.81;83.47
50652;BME280;61429;52.086;5.240;2022-12-29T12:17:10;100127.0;;;10.67;83.28
50652;BME280;61429;52.086;5.240;2022-12-29T12:18:53;100125.0;;;10.85;82.53
50652;BME280;61429;52.086;5.240;2022-12-29T12:22:23;100127.0;;;10.72;82.43
50652;BME280;61429;52.086;5.240;2022-12-29T12:24:16;100133.0;;;10.89;82.06
50652;BME280;61429;52.086;5.240;2022-12-29T12:26:16;100128.0;;;10.83;82.03
50652;BME280;61429;52.086;5.240;2022-12-29T12:27:57;100135.0;;;10.82;82.33
50652;BME280;61429;52.086;5.240;2022-12-29T12:29:42;100134.0;;;10.84;82.58
50652;BME280;61429;52.086;5.240;2022-12-29T12:31:44;100130.0;;;10.74;82.29
50652;BME280;61429;52.086;5.240;2022-12-29T12:35:07;100136.0;;;10.79;82.39
50652;BME280;61429;52.086;5.240;2022-12-29T12:37:00;100146.0;;;10.84;81.52
50652;BME280;61429;52.086;5.240;2022-12-29T12:38:50;100146.0;;;10.89;81.56
50652;BME280;61429;52.086;5.240;2022-12-29T12:40:38;100153.0;;;10.81;81.55
50652;BME280;61429;52.086;5.240;2022-12-29T12:44:17;100155.0;;;10.81;81.28
50652;BME280;61429;52.086;5.240;2022-12-29T12:46:14;100151.0;;;10.91;80.84
50652;BME280;61429;52.086;5.240;2022-12-29T12:50:03;100146.0;;;10.93;80.5
50652;BME280;61429;52.086;5.240;2022-12-29T12:52:20;100153.0;;;10.96;80.47
50652;BME280;61429;52.086;5.240;2022-12-29T12:56:17;100157.0;;;11.06;80.11
50652;BME280;61429;52.086;5.240;2022-12-29T12:58:54;100156.0;;;11.1;79.34
50652;BME280;61429;52.086;5.240;2022-12-29T13:00:45;100166.0;;;11.05;79.5
50652;BME280;61429;52.086;5.240;2022-12-29T13:04:32;100169.0;;;11.08;79.02
50652;BME280;61429;52.086;5.240;2022-12-29T13:06:48;100157.0;;;11.06;78.52
50652;BME280;61429;52.086;5.240;2022-12-29T13:08:46;100163.0;;;11.05;78.78
50652;BME280;61429;52.086;5.240;2022-12-29T13:10:41;100180.0;;;11.09;78.59
50652;BME280;61429;52.086;5.240;2022-12-29T13:12:28;100168.0;;;11.17;78.44
50652;BME280;61429;52.086;5.240;2022-12-29T13:14:21;100168.0;;;11.25;78.16
50652;BME280;61429;52.086;5.240;2022-12-29T13:16:10;100178.0;;;11.23;77.97
50652;BME280;61429;52.086;5.240;2022-12-29T13:17:55;100174.0;;;10.98;77.94
50652;BME280;61429;52.086;5.240;2022-12-29T13:19:41;100181.0;;;11.07;77.91
50652;BME280;61429;52.086;5.240;2022-12-29T13:25:16;100188.0;;;11.02;78.61
50652;BME280;61429;52.086;5.240;2022-12-29T13:27:08;100180.0;;;10.92;78.63
50652;BME280;61429;52.086;5.240;2022-12-29T13:28:55;100196.0;;;11.04;78.45
50652;BME280;61429;52.086;5.240;2022-12-29T13:30:40;100191.0;;;10.94;78.41
50652;BME280;61429;52.086;5.240;2022-12-29T13:32:30;100197.0;;;10.89;77.97
50652;BME280;61429;52.086;5.240;2022-12-29T13:34:17;100195.0;;;10.92;78.12
50652;BME280;61429;52.086;5.240;2022-12-29T13:37:49;100194.0;;;10.93;77.63
50652;BME280;61429;52.086;5.240;2022-12-29T13:39:30;100201.0;;;10.95;78.44
50652;BME280;61429;52.086;5.240;2022-12-29T13:41:13;100198.0;;;10.95;78.74
50652;BME280;61429;52.086;5.240;2022-12-29T13:42:55;100198.0;;;10.94;78.94
50652;BME280;61429;52.086;5.240;2022-12-29T13:44:35;100196.0;;;10.96;78.94
50652;BME280;61429;52.086;5.240;2022-12-29T13:48:02;100198.0;;;11.18;78.44
50652;BME280;61429;52.086;5.240;2022-12-29T13:49:43;100194.0;;;10.99;79.19
50652;BME280;61429;52.086;5.240;2022-12-29T13:51:21;100199.0;;;11.08;78.81
50652;BME280;61429;52.086;5.240;2022-12-29T13:53:05;100198.0;;;11.04;78.66
50652;BME280;61429;52.086;5.240;2022-12-29T13:56:39;100191.0;;;11.09;78.08
50652;BME280;61429;52.086;5.240;2022-12-29T13:58:26;100189.0;;;10.97;77.86
50652;BME280;61429;52.086;5.240;2022-12-29T14:00:12;100190.0;;;11.0;78.16
50652;BME280;61429;52.086;5.240;2022-12-29T14:01:56;100190.0;;;10.82;78.58
50652;BME280;61429;52.086;5.240;2022-12-29T14:03:52;100195.0;;;10.73;78.84
50652;BME280;61429;52.086;5.240;2022-12-29T14:05:31;100202.0;;;10.75;78.44
50652;BME280;61429;52.086;5.240;2022-12-29T14:08:56;100210.0;;;10.74;78.83
50652;BME280;61429;52.086;5.240;2022-12-29T14:10:35;100200.0;;;10.66;79.09
50652;BME280;61429;52.086;5.240;2022-12-29T14:12:25;100198.0;;;10.58;79.05
50652;BME280;61429;52.086;5.240;2022-12-29T14:14:14;100201.0;;;10.45;78.98
50652;BME280;61429;52.086;5.240;2022-12-29T14:15:57;100209.0;;;10.48;79.66
50652;BME280;61429;52.086;5.240;2022-12-29T14:19:15;100215.0;;;10.31;79.83
50652;BME280;61429;52.086;5.240;2022-12-29T14:20:56;100218.0;;;10.37;80.16
50652;BME280;61429;52.086;5.240;2022-12-29T14:22:34;100218.0;;;10.22;80.78
50652;BME280;61429;52.086;5.240;2022-12-29T14:24:32;100215.0;;;10.37;80.22
50652;BME280;61429;52.086;5.240;2022-12-29T14:26:37;100222.0;;;10.25;79.69
50652;BME280;61429;52.086;5.240;2022-12-29T14:29:59;100225.0;;;10.39;79.23
50652;BME280;61429;52.086;5.240;2022-12-29T14:31:37;100235.0;;;10.16;80.81
50652;BME280;61429;52.086;5.240;2022-12-29T14:33:14;100223.0;;;10.27;81.34
50652;BME280;61429;52.086;5.240;2022-12-29T14:34:52;100225.0;;;10.08;82.45
50652;BME280;61429;52.086;5.240;2022-12-29T14:38:22;100221.0;;;10.16;82.69
50652;BME280;61429;52.086;5.240;2022-12-29T14:40:13;100226.0;;;10.11;83.0
50652;BME280;61429;52.086;5.240;2022-12-29T14:42:00;100218.0;;;10.06;83.33
50652;BME280;61429;52.086;5.240;2022-12-29T14:43:39;100217.0;;;10.05;83.41
50652;BME280;61429;52.086;5.240;2022-12-29T14:45:27;100224.0;;;10.16;83.23
50652;BME280;61429;52.086;5.240;2022-12-29T14:48:44;100224.0;;;9.83;84.02
50652;BME280;61429;52.086;5.240;2022-12-29T14:50:23;100226.0;;;10.06;84.24
50652;BME280;61429;52.086;5.240;2022-12-29T14:52:07;100225.0;;;10.13;83.89
50652;BME280;61429;52.086;5.240;2022-12-29T14:53:50;100224.0;;;10.05;84.46
50652;BME280;61429;52.086;5.240;2022-12-29T14:57:19;100230.0;;;10.23;84.25
50652;BME280;61429;52.086;5.240;2022-12-29T14:59:02;100227.0;;;10.23;84.13
50652;BME280;61429;52.086;5.240;2022-12-29T15:00:41;100230.0;;;10.31;83.95
50652;BME280;61429;52.086;5.240;2022-12-29T15:02:21;100227.0;;;10.3;83.97
50652;BME280;61429;52.086;5.240;2022-12-29T15:04:05;100225.0;;;10.23;84.03
50652;BME280;61429;52.086;5.240;2022-12-29T15:07:30;100230.0;;;10.33;83.56
50652;BME280;61429;52.086;5.240;2022-12-29T15:09:17;100219.0;;;10.45;83.17
50652;BME280;61429;52.086;5.240;2022-12-29T15:11:01;100230.0;;;10.29;83.4
50652;BME280;61429;52.086;5.240;2022-12-29T15:12:45;100226.0;;;10.26;83.28
50652;BME280;61429;52.086;5.240;2022-12-29T15:14:31;100231.0;;;10.39;82.74
50652;BME280;61429;52.086;5.240;2022-12-29T15:18:13;100234.0;;;10.44;82.76
50652;BME280;61429;52.086;5.240;2022-12-29T15:20:01;100246.0;;;10.37;82.55
50652;BME280;61429;52.086;5.240;2022-12-29T15:21:52;100245.0;;;10.42;82.24
50652;BME280;61429;52.086;5.240;2022-12-29T15:23:31;100243.0;;;10.26;82.47
50652;BME280;61429;52.086;5.240;2022-12-29T15:25:15;100236.0;;;10.48;82.02
50652;BME280;61429;52.086;5.240;2022-12-29T15:28:37;100244.0;;;10.35;82.16
50652;BME280;61429;52.086;5.240;2022-12-29T15:30:15;100245.0;;;10.42;81.92
50652;BME280;61429;52.086;5.240;2022-12-29T15:31:52;100238.0;;;10.43;81.59
50652;BME280;61429;52.086;5.240;2022-12-29T15:33:29;100236.0;;;10.54;81.49
50652;BME280;61429;52.086;5.240;2022-12-29T15:37:08;100246.0;;;10.53;81.03
50652;BME280;61429;52.086;5.240;2022-12-29T15:38:45;100248.0;;;10.38;81.06
50652;BME280;61429;52.086;5.240;2022-12-29T15:40:26;100256.0;;;10.45;81.08
50652;BME280;61429;52.086;5.240;2022-12-29T15:42:14;100257.0;;;10.38;81.22
50652;BME280;61429;52.086;5.240;2022-12-29T15:44:07;100256.0;;;10.35;80.56
50652;BME280;61429;52.086;5.240;2022-12-29T15:45:49;100255.0;;;10.23;80.86
50652;BME280;61429;52.086;5.240;2022-12-29T15:49:06;100265.0;;;10.41;80.56
50652;BME280;61429;52.086;5.240;2022-12-29T15:50:44;100258.0;;;10.26;80.86
50652;BME280;61429;52.086;5.240;2022-12-29T15:52:22;100268.0;;;10.18;80.86
50652;BME280;61429;52.086;5.240;2022-12-29T15:55:37;100265.0;;;10.15;80.77
50652;BME280;61429;52.086;5.240;2022-12-29T15:57:22;100270.0;;;10.15;80.23
50652;BME280;61429;52.086;5.240;2022-12-29T15:59:00;100270.0;;;10.25;80.23
50652;BME280;61429;52.086;5.240;2022-12-29T16:00:37;100272.0;;;10.19;80.33
50652;BME280;61429;52.086;5.240;2022-12-29T16:03:51;100281.0;;;10.18;80.47
50652;BME280;61429;52.086;5.240;2022-12-29T16:05:32;100283.0;;;10.24;79.8
50652;BME280;61429;52.086;5.240;2022-12-29T16:07:24;100295.0;;;10.23;79.61
50652;BME280;61429;52.086;5.240;2022-12-29T16:09:04;100288.0;;;10.15;79.55
50652;BME280;61429;52.086;5.240;2022-12-29T16:12:21;100291.0;;;10.18;79.58
50652;BME280;61429;52.086;5.240;2022-12-29T16:14:00;100297.0;;;10.18;79.3
50652;BME280;61429;52.086;5.240;2022-12-29T16:15:37;100301.0;;;10.14;79.24
50652;BME280;61429;52.086;5.240;2022-12-29T16:17:17;100306.0;;;10.15;79.13
50652;BME280;61429;52.086;5.240;2022-12-29T16:20:37;100309.0;;;9.96;79.17
50652;BME280;61429;52.086;5.240;2022-12-29T16:22:22;100310.0;;;10.06;78.86
50652;BME280;61429;52.086;5.240;2022-12-29T16:24:06;100309.0;;;9.91;79.03
50652;BME280;61429;52.086;5.240;2022-12-29T16:25:43;100306.0;;;10.17;77.89
50652;BME280;61429;52.086;5.240;2022-12-29T16:29:05;100303.0;;;10.06;78.44
50652;BME280;61429;52.086;5.240;2022-12-29T16:30:43;100308.0;;;10.08;77.98
50652;BME280;61429;52.086;5.240;2022-12-29T16:32:24;100311.0;;;9.94;77.62
50652;BME280;61429;52.086;5.240;2022-12-29T16:34:12;100316.0;;;9.98;77.47
50652;BME280;61429;52.086;5.240;2022-12-29T16:37:28;100326.0;;;9.94;77.28
50652;BME280;61429;52.086;5.240;2022-12-29T16:39:38;100330.0;;;9.92;77.0
50652;BME280;61429;52.086;5.240;2022-12-29T16:41:28;100333.0;;;9.91;77.11
50652;BME280;61429;52.086;5.240;2022-12-29T16:43:20;100330.0;;;9.89;76.61
50652;BME280;61429;52.086;5.240;2022-12-29T16:45:17;100332.0;;;9.88;76.95
50652;BME280;61429;52.086;5.240;2022-12-29T16:47:19;100332.0;;;9.8;77.12
50652;BME280;61429;52.086;5.240;2022-12-29T16:48:57;100328.0;;;9.65;77.27
50652;BME280;61429;52.086;5.240;2022-12-29T16:52:18;100330.0;;;9.68;77.22
50652;BME280;61429;52.086;5.240;2022-12-29T16:53:55;100330.0;;;9.67;77.11
50652;BME280;61429;52.086;5.240;2022-12-29T16:55:33;100334.0;;;9.71;77.05
50652;BME280;61429;52.086;5.240;2022-12-29T16:57:10;100342.0;;;9.65;77.23
50652;BME280;61429;52.086;5.240;2022-12-29T17:00:27;100336.0;;;9.57;77.48
50652;BME280;61429;52.086;5.240;2022-12-29T17:02:14;100341.0;;;9.48;77.44
50652;BME280;61429;52.086;5.240;2022-12-29T17:03:54;100342.0;;;9.47;77.58
50652;BME280;61429;52.086;5.240;2022-12-29T17:05:33;100350.0;;;9.39;77.84
50652;BME280;61429;52.086;5.240;2022-12-29T17:08:53;100349.0;;;9.41;77.66
50652;BME280;61429;52.086;5.240;2022-12-29T17:10:32;100351.0;;;9.41;77.74
50652;BME280;61429;52.086;5.240;2022-12-29T17:12:14;100357.0;;;9.5;77.41
50652;BME280;61429;52.086;5.240;2022-12-29T17:13:51;100361.0;;;9.42;77.48
50652;BME280;61429;52.086;5.240;2022-12-29T17:17:13;100357.0;;;9.35;77.89
50652;BME280;61429;52.086;5.240;2022-12-29T17:18:52;100361.0;;;9.27;77.84
50652;BME280;61429;52.086;5.240;2022-12-29T17:20:30;100365.0;;;9.3;77.64
50652;BME280;61429;52.086;5.240;2022-12-29T17:22:09;100369.0;;;9.19;77.97
50652;BME280;61429;52.086;5.240;2022-12-29T17:25:27;100369.0;;;9.25;77.64
50652;BME280;61429;52.086;5.240;2022-12-29T17:27:18;100376.0;;;9.31;77.3
50652;BME280;61429;52.086;5.240;2022-12-29T17:29:01;100383.0;;;9.41;76.47
50652;BME280;61429;52.086;5.240;2022-12-29T17:30:39;100390.0;;;9.53;76.16
50652;BME280;61429;52.086;5.240;2022-12-29T17:33:52;100391.0;;;9.39;76.55
50652;BME280;61429;52.086;5.240;2022-12-29T17:35:29;100395.0;;;9.31;76.52
50652;BME280;61429;52.086;5.240;2022-12-29T17:37:21;100405.0;;;9.23;76.58
50652;BME280;61429;52.086;5.240;2022-12-29T17:39:05;100408.0;;;9.3;76.78
50652;BME280;61429;52.086;5.240;2022-12-29T17:42:18;100403.0;;;9.23;76.52
50652;BME280;61429;52.086;5.240;2022-12-29T17:43:55;100408.0;;;9.22;76.61
50652;BME280;61429;52.086;5.240;2022-12-29T17:45:38;100411.0;;;9.19;76.64
50652;BME280;61429;52.086;5.240;2022-12-29T17:47:15;100417.0;;;9.1;76.37
50652;BME280;61429;52.086;5.240;2022-12-29T17:50:29;100423.0;;;9.11;76.39
50652;BME280;61429;52.086;5.240;2022-12-29T17:52:08;100430.0;;;9.06;76.41
50652;BME280;61429;52.086;5.240;2022-12-29T17:53:46;100432.0;;;9.14;76.33